Time;durP1;ratioP1;P1;durP2;ratioP2;P2;SDS_P1;SDS_P2;PMS_P1;PMS_P2;Temp;Humidity;BMP_temperature;BMP_pressure;BME280_temperature;BME280_humidity;BME280_pressure;Samples;Min_cycle;Max_cycle;Signal;HPM_P1;HPM_P2
2023/12/07 00:02:27;;;;;;;22.10;14.10;;;;;;;1.93;100.00;96987.71;110477;1241;67544;-67
2023/12/07 00:05:00;;;;;;;22.20;14.50;;;;;;;1.89;100.00;96989.58;110361;1238;59698;-67
2023/12/07 00:07:30;;;;;;;22.60;14.40;;;;;;;1.86;100.00;96992.32;110416;1239;60032;-67
2023/12/07 00:10:02;;;;;;;26.30;16.80;;;;;;;1.83;100.00;96990.55;110410;1242;70499;-67
2023/12/07 00:12:33;;;;;;;22.40;15.90;;;;;;;1.81;100.00;96994.63;110396;1241;68538;-67
2023/12/07 00:15:04;;;;;;;26.30;16.30;;;;;;;1.79;100.00;96992.11;110342;1238;69813;-66
2023/12/07 00:17:38;;;;;;;26.00;17.30;;;;;;;1.75;100.00;96996.40;110427;1240;60082;-67
2023/12/07 00:20:08;;;;;;;32.60;20.60;;;;;;;1.74;100.00;96997.84;110428;1241;59638;-67
2023/12/07 00:22:38;;;;;;;31.80;21.40;;;;;;;1.70;100.00;96997.49;110455;1240;71230;-67
2023/12/07 00:25:09;;;;;;;31.30;21.80;;;;;;;1.65;100.00;97002.67;110364;1242;69115;-67
2023/12/07 00:27:39;;;;;;;32.60;21.90;;;;;;;1.66;100.00;97000.96;110595;1240;69870;-67
2023/12/07 00:30:09;;;;;;;29.00;19.00;;;;;;;1.66;100.00;97002.82;110424;1240;59729;-66
2023/12/07 00:32:43;;;;;;;24.70;17.70;;;;;;;1.68;100.00;97006.20;110435;1240;59751;-66
2023/12/07 00:35:15;;;;;;;22.60;15.40;;;;;;;1.68;100.00;97005.33;110376;1241;71941;-66
2023/12/07 00:37:46;;;;;;;23.40;15.30;;;;;;;1.70;100.00;97006.58;110441;1238;68585;-66
2023/12/07 00:40:17;;;;;;;23.80;15.40;;;;;;;1.73;100.00;97005.59;110338;1238;69623;-66
2023/12/07 00:42:49;;;;;;;20.30;13.50;;;;;;;1.78;100.00;97007.31;110396;1238;59780;-66
2023/12/07 00:45:20;;;;;;;19.80;15.00;;;;;;;1.81;100.00;97009.55;110394;1240;59681;-66
2023/12/07 00:47:49;;;;;;;22.90;16.80;;;;;;;1.82;100.00;97009.36;110388;1238;71804;-66
2023/12/07 00:50:19;;;;;;;;;;;;;;;1.82;100.00;97012.25;110507;1238;69372;-68
2023/12/07 00:52:50;;;;;;;26.30;15.60;;;;;;;1.79;100.00;97006.19;110473;1238;69123;-66
2023/12/07 00:55:20;;;;;;;22.80;14.10;;;;;;;1.83;100.00;97009.50;110476;1240;59757;-67
2023/12/07 00:57:54;;;;;;;18.90;13.70;;;;;;;1.84;100.00;97005.66;110447;1240;59731;-68
2023/12/07 01:00:25;;;;;;;19.90;13.40;;;;;;;1.87;100.00;97010.48;110548;1239;70451;-67
2023/12/07 01:02:55;;;;;;;19.60;13.30;;;;;;;1.90;100.00;97007.76;110472;1238;69678;-68
2023/12/07 01:05:29;;;;;;;20.70;14.70;;;;;;;1.93;100.00;97008.34;110501;1238;69198;-66
2023/12/07 01:08:00;;;;;;;19.00;14.20;;;;;;;1.96;100.00;97006.15;110299;1242;59701;-66
2023/12/07 01:10:32;;;;;;;19.50;13.50;;;;;;;1.97;100.00;97007.30;110563;1241;59630;-67
2023/12/07 01:13:04;;;;;;;19.40;13.50;;;;;;;1.99;100.00;97007.91;110422;1240;71394;-67
2023/12/07 01:15:37;;;;;;;23.10;15.30;;;;;;;1.99;100.00;97010.11;110358;1241;69176;-66
2023/12/07 01:18:10;;;;;;;36.00;24.70;;;;;;;1.95;100.00;97010.66;110407;1243;69031;-67
2023/12/07 01:20:42;;;;;;;36.60;24.70;;;;;;;1.93;100.00;97011.95;110431;1241;59675;-66
2023/12/07 01:23:12;;;;;;;35.10;24.80;;;;;;;1.88;100.00;97010.78;110439;1241;60082;-67
2023/12/07 01:25:48;;;;;;;35.20;25.20;;;;;;;1.84;100.00;97010.27;110374;1241;71502;-67
2023/12/07 01:28:19;;;;;;;34.00;23.90;;;;;;;1.83;100.00;97005.69;110328;1240;69405;-67
2023/12/07 01:30:50;;;;;;;39.40;26.50;;;;;;;1.83;100.00;97005.02;110401;1241;69359;-67
2023/12/07 01:33:27;;;;;;;44.30;29.60;;;;;;;1.82;100.00;97004.52;110437;1238;59741;-67
2023/12/07 01:36:00;;;;;;;47.10;34.20;;;;;;;1.78;100.00;97006.40;110457;1240;59726;-67
2023/12/07 01:38:35;;;;;;;51.60;34.10;;;;;;;1.74;100.00;97004.55;110419;1241;71425;-67
2023/12/07 01:41:10;;;;;;;54.20;35.90;;;;;;;1.70;100.00;97007.48;110448;1238;68568;-67
2023/12/07 01:43:49;;;;;;;52.30;34.40;;;;;;;1.65;100.00;97004.92;110402;1241;69677;-67
2023/12/07 01:46:28;;;;;;;40.20;28.10;;;;;;;1.61;100.00;97004.59;110355;1242;59690;-66
2023/12/07 01:49:04;;;;;;;47.80;33.00;;;;;;;1.63;100.00;97007.63;110471;1238;59745;-67
2023/12/07 01:51:37;;;;;;;53.60;36.80;;;;;;;1.64;100.00;97005.70;110414;1240;70815;-66
2023/12/07 01:54:12;;;;;;;40.60;28.90;;;;;;;1.61;100.00;97008.21;109752;1241;810973;-66
2023/12/07 01:56:51;;;;;;;44.50;28.70;;;;;;;1.61;100.00;97009.08;110456;1241;69124;-66
2023/12/07 01:59:27;;;;;;;43.10;28.60;;;;;;;1.64;100.00;97011.35;110331;1242;59753;-66
2023/12/07 02:02:04;;;;;;;38.40;26.30;;;;;;;1.65;100.00;97008.70;110478;1241;59692;-66
2023/12/07 02:04:43;;;;;;;41.30;30.50;;;;;;;1.67;100.00;97008.63;110581;1241;71392;-66
2023/12/07 02:07:26;;;;;;;39.40;27.60;;;;;;;1.71;100.00;97008.61;110574;1238;68304;-66
2023/12/07 02:09:58;;;;;;;48.00;32.80;;;;;;;1.74;100.00;97008.34;110501;1242;69316;-66
2023/12/07 02:12:36;;;;;;;44.10;31.30;;;;;;;1.71;100.00;97008.81;110478;1243;59691;-67
2023/12/07 02:15:12;;;;;;;40.40;26.50;;;;;;;1.70;100.00;97009.88;110509;1240;59658;-67
2023/12/07 02:18:16;;;;;;;32.20;22.90;;;;;;;1.73;100.00;97009.41;110331;1239;70504;-67
2023/12/07 02:20:51;;;;;;;38.70;26.60;;;;;;;1.76;100.00;97010.65;110424;1241;69263;-67
2023/12/07 02:23:26;;;;;;;32.10;22.80;;;;;;;1.79;100.00;97014.61;110416;1241;69266;-67
2023/12/07 02:26:51;;;;;;;35.20;25.40;;;;;;;1.80;100.00;97014.06;110471;1238;59757;-66
2023/12/07 02:29:24;;;;;;;36.40;24.30;;;;;;;1.78;100.00;97013.95;110502;1243;59681;-66
2023/12/07 02:31:58;;;;;;;35.60;26.80;;;;;;;1.76;100.00;97016.30;110443;1238;71414;-69
2023/12/07 02:34:35;;;;;;;37.40;24.60;;;;;;;1.73;100.00;97017.98;110490;1238;68728;-68
2023/12/07 02:37:09;;;;;;;41.70;26.90;;;;;;;1.71;100.00;97023.21;110473;1241;68150;-68
2023/12/07 02:39:41;;;;;;;31.20;23.20;;;;;;;1.72;100.00;97023.72;110421;1241;59676;-66
2023/12/07 02:42:13;;;;;;;34.90;25.30;;;;;;;1.73;100.00;97024.70;110510;1240;59678;-68
2023/12/07 02:44:53;;;;;;;39.90;26.30;;;;;;;1.73;100.00;97022.30;110487;1238;69715;-67
2023/12/07 02:47:23;;;;;;;40.50;27.30;;;;;;;1.70;100.00;97027.23;110379;1242;69969;-68
2023/12/07 02:49:54;;;;;;;47.00;31.80;;;;;;;1.68;100.00;97024.93;110467;1241;69253;-68
2023/12/07 02:52:28;;;;;;;56.50;37.00;;;;;;;1.65;100.00;97025.56;110515;1238;59693;-67
2023/12/07 02:54:59;;;;;;;54.50;35.50;;;;;;;1.60;100.00;97024.39;110330;1242;59769;-68
2023/12/07 02:57:34;;;;;;;48.20;33.30;;;;;;;1.56;100.00;97024.93;110476;1241;69937;-68
2023/12/07 03:00:07;;;;;;;51.80;35.70;;;;;;;1.49;100.00;97026.73;110449;1240;69246;-67
2023/12/07 03:02:41;;;;;;;47.20;33.80;;;;;;;1.42;100.00;97028.60;110500;1241;68701;-67
2023/12/07 03:05:12;;;;;;;53.30;34.50;;;;;;;1.41;100.00;97029.33;110531;1240;59675;-66
2023/12/07 03:07:44;;;;;;;42.90;28.80;;;;;;;1.46;100.00;97029.12;110567;1238;59756;-67
2023/12/07 03:10:15;;;;;;;38.10;25.20;;;;;;;1.49;100.00;97028.64;110443;1238;71240;-67
2023/12/07 03:12:45;;;;;;;32.90;23.60;;;;;;;1.51;100.00;97032.34;110228;1238;69205;-66
2023/12/07 03:15:15;;;;;;;28.60;20.80;;;;;;;1.52;100.00;97031.58;110431;1241;67847;-66
2023/12/07 03:17:49;;;;;;;30.50;21.00;;;;;;;1.51;100.00;97032.80;110482;1242;59734;-66
2023/12/07 03:20:21;;;;;;;26.20;18.80;;;;;;;1.51;100.00;97032.80;110555;1242;59714;-66
2023/12/07 03:22:54;;;;;;;29.40;18.40;;;;;;;1.51;100.00;97034.02;110453;1240;70680;-66
2023/12/07 03:25:25;;;;;;;;;;;;;;;1.51;100.00;97033.69;110534;1242;68216;-66
2023/12/07 03:27:57;;;;;;;26.80;18.50;;;;;;;1.50;100.00;97033.21;110442;1241;67347;-66
2023/12/07 03:30:27;;;;;;;26.80;18.00;;;;;;;1.52;100.00;97034.50;110570;1240;59747;-66
2023/12/07 03:32:58;;;;;;;23.20;16.20;;;;;;;1.55;100.00;97035.08;110367;1241;59686;-68
2023/12/07 03:35:29;;;;;;;20.90;14.60;;;;;;;1.59;100.00;97035.62;110505;1242;70531;-68
2023/12/07 03:38:00;;;;;;;20.80;13.30;;;;;;;1.62;100.00;97034.61;110409;1240;69310;-68
2023/12/07 03:40:33;;;;;;;19.90;14.00;;;;;;;1.65;100.00;97035.17;110541;1241;68843;-68
2023/12/07 03:43:04;;;;;;;19.30;13.80;;;;;;;1.67;100.00;97031.83;110392;1242;59729;-67
2023/12/07 03:45:34;;;;;;;18.10;12.70;;;;;;;1.69;100.00;97033.26;110623;1241;59696;-66
2023/12/07 03:48:05;;;;;;;20.20;13.10;;;;;;;1.71;100.00;97034.05;110414;1238;70812;-68
2023/12/07 03:50:36;;;;;;;18.80;12.30;;;;;;;1.72;100.00;97035.55;110395;1242;68549;-68
2023/12/07 03:53:06;;;;;;;17.70;12.10;;;;;;;1.74;100.00;97039.41;110436;1242;69268;-66
2023/12/07 03:55:37;;;;;;;18.70;12.60;;;;;;;1.75;100.00;97038.84;110402;1240;59684;-66
2023/12/07 03:58:08;;;;;;;15.50;10.20;;;;;;;1.77;100.00;97043.73;110376;1240;59686;-66
2023/12/07 04:00:42;;;;;;;17.00;12.30;;;;;;;1.79;100.00;97046.23;110517;1238;71210;-66
2023/12/07 04:03:11;;;;;;;;;;;;;;;1.82;100.00;97047.82;110541;1241;68579;-67
2023/12/07 04:05:43;;;;;;;15.20;11.70;;;;;;;1.84;100.00;97051.52;110252;1244;68353;-66
2023/12/07 04:08:13;;;;;;;18.60;12.00;;;;;;;1.87;100.00;97052.61;110377;1241;59736;-66
2023/12/07 04:10:45;;;;;;;16.70;11.80;;;;;;;1.89;100.00;97051.81;110424;1241;59734;-66
2023/12/07 04:13:15;;;;;;;19.50;13.40;;;;;;;1.91;100.00;97057.73;110425;1238;70636;-66
2023/12/07 04:15:46;;;;;;;19.80;14.10;;;;;;;1.94;100.00;97058.15;110579;1238;68492;-66
2023/12/07 04:18:18;;;;;;;20.70;15.10;;;;;;;1.95;100.00;97062.75;110466;1238;69422;-67
2023/12/07 04:20:48;;;;;;;24.10;16.30;;;;;;;1.96;100.00;97066.98;110447;1240;59734;-66
2023/12/07 04:23:17;;;;;;;;;;;;;;;1.99;100.00;97063.41;110448;1240;59725;-66
2023/12/07 04:25:47;;;;;;;18.60;11.50;;;;;;;2.00;100.00;97063.38;110387;1240;71661;-66
2023/12/07 04:28:18;;;;;;;18.00;12.50;;;;;;;2.01;100.00;97064.48;110426;1238;69295;-66
2023/12/07 04:30:47;;;;;;;16.50;11.40;;;;;;;2.02;100.00;97062.74;110456;1238;68503;-66
2023/12/07 04:33:17;;;;;;;18.00;12.60;;;;;;;2.04;100.00;97062.66;110525;1241;59640;-66
2023/12/07 04:35:47;;;;;;;14.80;10.50;;;;;;;2.07;100.00;97065.50;110592;1241;59737;-67
2023/12/07 04:38:18;;;;;;;16.90;11.00;;;;;;;2.08;100.00;97066.29;110490;1240;71403;-66
2023/12/07 04:40:48;;;;;;;18.90;13.70;;;;;;;2.09;100.00;97067.82;110305;1242;69207;-66
2023/12/07 04:43:18;;;;;;;15.80;12.50;;;;;;;2.09;100.00;97067.10;110422;1238;69868;-66
2023/12/07 04:45:49;;;;;;;19.40;13.60;;;;;;;2.09;100.00;97074.84;110357;1240;59702;-66
2023/12/07 04:48:21;;;;;;;15.30;11.60;;;;;;;2.10;100.00;97067.26;110281;1242;59701;-67
2023/12/07 04:50:51;;;;;;;13.50;10.80;;;;;;;2.12;100.00;97074.02;110438;1242;71363;-66
2023/12/07 04:53:21;;;;;;;19.00;13.80;;;;;;;2.13;100.00;97072.09;110457;1238;69044;-67
2023/12/07 04:55:52;;;;;;;31.00;20.60;;;;;;;2.13;100.00;97078.45;110448;1241;69352;-66
2023/12/07 04:58:21;;;;;;;;;;;;;;;2.11;100.00;97081.98;110564;1241;59738;-68
2023/12/07 05:00:53;;;;;;;30.40;23.90;;;;;;;2.06;100.00;97083.73;110529;1238;59734;-68
2023/12/07 05:03:26;;;;;;;35.10;22.50;;;;;;;2.01;100.00;97085.47;110530;1241;71460;-67
2023/12/07 05:05:56;;;;;;;41.40;28.50;;;;;;;1.99;100.00;97090.40;110519;1241;69279;-66
2023/12/07 05:08:27;;;;;;;39.80;28.30;;;;;;;1.92;100.00;97094.66;110518;1239;68518;-68
2023/12/07 05:10:57;;;;;;;37.20;26.70;;;;;;;1.88;100.00;97097.06;110437;1241;59696;-66
2023/12/07 05:13:27;;;;;;;31.60;23.20;;;;;;;1.85;100.00;97099.77;110255;1240;59772;-67
2023/12/07 05:15:57;;;;;;;30.90;22.00;;;;;;;1.84;100.00;97102.02;110603;1243;71403;-66
2023/12/07 05:18:27;;;;;;;28.50;20.40;;;;;;;1.87;100.00;97101.94;110437;1242;69223;-66
2023/12/07 05:20:57;;;;;;;32.10;22.30;;;;;;;1.87;100.00;97105.20;110391;1242;68423;-66
2023/12/07 05:23:27;;;;;;;35.60;25.90;;;;;;;1.86;100.00;97109.84;110367;1240;59677;-66
2023/12/07 05:25:57;;;;;;;31.00;21.10;;;;;;;1.89;100.00;97111.46;110466;1240;59672;-66
2023/12/07 05:28:27;;;;;;;26.20;19.20;;;;;;;1.91;100.00;97114.30;110488;1240;71427;-66
2023/12/07 05:30:57;;;;;;;27.60;20.20;;;;;;;1.91;100.00;97118.42;110544;1241;69049;-66
2023/12/07 05:33:28;;;;;;;24.50;17.80;;;;;;;1.93;100.00;97120.23;110410;1241;69217;-66
2023/12/07 05:35:58;;;;;;;28.30;19.00;;;;;;;1.96;100.00;97125.61;110433;1238;59708;-66
2023/12/07 05:38:28;;;;;;;;;;;;;;;1.97;100.00;97123.80;110407;1242;59694;-66
2023/12/07 05:40:57;;;;;;;25.60;18.90;;;;;;;1.98;100.00;97125.48;110587;1242;71161;-66
2023/12/07 05:43:27;;;;;;;27.10;17.20;;;;;;;2.00;100.00;97121.63;110403;1238;69450;-67
2023/12/07 05:45:58;;;;;;;23.10;15.00;;;;;;;2.04;100.00;97125.58;110426;1242;68526;-67
2023/12/07 05:48:28;;;;;;;19.30;13.10;;;;;;;2.09;100.00;97123.34;110362;1242;59698;-67
2023/12/07 05:50:58;;;;;;;;;;;;;;;2.13;100.00;97123.15;110601;1240;59672;-67
2023/12/07 05:53:28;;;;;;;19.10;14.20;;;;;;;2.15;100.00;97125.80;110436;1240;69902;-67
2023/12/07 05:55:59;;;;;;;25.70;16.90;;;;;;;2.17;100.00;97126.08;110572;1242;69117;-67
2023/12/07 05:58:34;;;;;;;38.20;22.50;;;;;;;2.19;100.00;97121.34;110475;1242;69321;-67
2023/12/07 06:01:05;;;;;;;26.80;17.20;;;;;;;2.21;100.00;97115.58;110445;1240;59760;-68
2023/12/07 06:03:35;;;;;;;21.60;14.90;;;;;;;2.22;100.00;97109.83;110496;1240;59650;-68
2023/12/07 06:06:05;;;;;;;19.50;12.80;;;;;;;2.24;100.00;97116.10;110459;1242;69719;-68
2023/12/07 06:08:35;;;;;;;18.70;12.40;;;;;;;2.28;100.00;97119.20;110347;1238;69080;-69
2023/12/07 06:11:06;;;;;;;20.80;14.20;;;;;;;2.30;100.00;97121.17;110516;1240;69103;-67
2023/12/07 06:13:35;;;;;;;22.80;15.50;;;;;;;2.33;100.00;97125.72;110454;1242;59747;-67
2023/12/07 06:16:06;;;;;;;27.70;18.70;;;;;;;2.31;100.00;97126.46;110573;1238;60098;-67
2023/12/07 06:18:37;;;;;;;30.20;24.20;;;;;;;2.31;100.00;97123.38;110382;1242;70612;-67
2023/12/07 06:21:07;;;;;;;30.30;21.80;;;;;;;2.30;100.00;97125.11;110656;1241;68326;-67
2023/12/07 06:23:38;;;;;;;32.30;23.30;;;;;;;2.29;100.00;97128.58;110426;1238;69577;-67
2023/12/07 06:26:07;;;;;;;29.90;19.80;;;;;;;2.32;100.00;97127.14;110457;1242;60085;-67
2023/12/07 06:28:37;;;;;;;32.60;22.10;;;;;;;2.34;100.00;97132.70;110424;1241;59753;-67
2023/12/07 06:31:08;;;;;;;39.60;24.10;;;;;;;2.35;100.00;97136.60;110542;1241;70652;-67
2023/12/07 06:33:37;;;;;;;38.50;25.80;;;;;;;2.35;100.00;97139.69;110406;1241;68463;-67
2023/12/07 06:36:11;;;;;;;36.20;24.40;;;;;;;2.36;100.00;97144.30;110522;1238;69575;-67
2023/12/07 06:38:42;;;;;;;38.40;23.50;;;;;;;2.37;100.00;97148.20;110482;1242;59739;-67
2023/12/07 06:41:11;;;;;;;;;;;;;;;2.40;100.00;97147.91;110409;1241;59672;-67
2023/12/07 06:43:40;;;;;;;30.40;18.30;;;;;;;2.42;100.00;97151.96;110388;1242;70291;-67
2023/12/07 06:46:14;;;;;;;26.30;17.50;;;;;;;2.43;100.00;97153.61;110396;1242;69092;-67
2023/12/07 06:48:43;;;;;;;18.40;12.70;;;;;;;2.46;100.00;97157.28;110466;1238;68545;-67
2023/12/07 06:51:16;;;;;;;16.20;10.30;;;;;;;2.49;100.00;97158.51;110540;1240;59652;-67
2023/12/07 06:53:47;;;;;;;13.20;9.20;;;;;;;2.51;100.00;97158.95;110421;1242;59702;-68
2023/12/07 06:56:17;;;;;;;13.10;8.20;;;;;;;2.53;100.00;97161.08;110522;1240;70701;-67
2023/12/07 06:58:46;;;;;;;10.90;7.40;;;;;;;2.57;100.00;97159.02;110384;1241;69785;-68
2023/12/07 07:01:16;;;;;;;10.30;7.70;;;;;;;2.61;100.00;97157.13;110427;1245;69319;-67
2023/12/07 07:03:45;;;;;;;7.90;6.90;;;;;;;2.66;100.00;97159.66;110374;1243;59721;-67
2023/12/07 07:06:15;;;;;;;10.40;7.00;;;;;;;2.69;100.00;97156.45;110436;1241;59675;-68
2023/12/07 07:08:45;;;;;;;12.60;8.10;;;;;;;2.71;100.00;97157.20;110454;1240;71342;-68
2023/12/07 07:11:15;;;;;;;17.40;8.10;;;;;;;2.71;100.00;97156.51;110512;1242;69223;-68
2023/12/07 07:13:44;;;;;;;15.80;7.70;;;;;;;2.71;100.00;97155.28;110462;1242;68411;-69
2023/12/07 07:16:15;;;;;;;10.50;6.40;;;;;;;2.74;100.00;97157.76;110490;1240;59737;-68
2023/12/07 07:18:45;;;;;;;11.70;6.80;;;;;;;2.76;100.00;97158.84;110642;1241;59677;-68
2023/12/07 07:21:15;;;;;;;11.40;7.40;;;;;;;2.78;100.00;97159.44;110548;1238;71375;-69
2023/12/07 07:23:45;;;;;;;9.90;6.40;;;;;;;2.80;100.00;97160.20;110527;1240;69872;-68
2023/12/07 07:26:16;;;;;;;10.10;6.10;;;;;;;2.84;100.00;97162.63;110360;1242;69429;-68
2023/12/07 07:28:46;;;;;;;10.40;6.80;;;;;;;2.87;100.00;97161.13;110389;1242;59737;-68
2023/12/07 07:31:15;;;;;;;14.20;10.10;;;;;;;2.89;100.00;97160.52;110491;1242;59697;-69
2023/12/07 07:33:46;;;;;;;12.90;8.60;;;;;;;2.90;100.00;97159.91;110529;1239;71246;-69
2023/12/07 07:36:28;;;;;;;13.20;9.40;;;;;;;2.92;100.00;97161.92;110438;1241;69212;-68
2023/12/07 07:38:58;;;;;;;14.30;9.00;;;;;;;2.95;100.00;97163.13;110462;1241;69509;-67
2023/12/07 07:41:28;;;;;;;10.80;8.30;;;;;;;3.00;100.00;97164.82;110470;1242;59737;-68
2023/12/07 07:43:57;;;;;;;12.80;8.10;;;;;;;3.02;100.00;97166.11;110458;1241;59662;-68
2023/12/07 07:46:29;;;;;;;12.40;9.00;;;;;;;3.04;100.00;97165.81;110463;1240;69452;-68
2023/12/07 07:48:59;;;;;;;11.10;7.00;;;;;;;3.06;100.00;97170.39;110415;1240;69300;-68
2023/12/07 07:51:28;;;;;;;8.80;6.30;;;;;;;3.08;100.00;97176.33;110375;1242;69273;-68
2023/12/07 07:53:59;;;;;;;8.10;5.80;;;;;;;3.11;100.00;97181.89;110455;1242;59705;-68
2023/12/07 07:56:29;;;;;;;7.80;5.60;;;;;;;3.14;100.00;97188.27;110489;1240;59643;-68
2023/12/07 07:59:00;;;;;;;5.40;3.70;;;;;;;3.15;100.00;97187.52;110398;1240;71956;-68
2023/12/07 08:01:29;;;;;;;6.80;4.00;;;;;;;3.17;100.00;97190.02;110403;1242;69249;-68
2023/12/07 08:03:59;;;;;;;6.60;4.80;;;;;;;3.20;100.00;97191.06;110385;1242;69645;-68
2023/12/07 08:06:32;;;;;;;7.10;5.50;;;;;;;3.26;100.00;97190.30;110432;1240;59643;-68
2023/12/07 08:09:05;;;;;;;6.40;4.40;;;;;;;3.30;100.00;97194.42;110455;1241;59635;-68
2023/12/07 08:11:35;;;;;;;;;;;;;;;3.35;100.00;97193.50;110364;1241;71349;-68
2023/12/07 08:14:05;;;;;;;5.60;3.90;;;;;;;3.40;100.00;97195.46;110372;1242;68332;-68
2023/12/07 08:16:35;;;;;;;5.10;3.40;;;;;;;3.42;100.00;97200.36;110384;1240;69831;-68
2023/12/07 08:19:05;;;;;;;;;;;;;;;3.46;100.00;97199.84;110409;1241;59675;-68
2023/12/07 08:21:35;;;;;;;4.60;3.20;;;;;;;3.50;100.00;97201.58;110524;1238;59736;-68
2023/12/07 08:24:05;;;;;;;4.70;3.10;;;;;;;3.52;100.00;97200.95;110404;1238;71662;-68
2023/12/07 08:26:35;;;;;;;3.50;2.90;;;;;;;3.56;100.00;97202.45;110456;1242;68458;-67
2023/12/07 08:29:06;;;;;;;5.00;3.20;;;;;;;3.60;100.00;97202.26;110338;1238;69328;-68
2023/12/07 08:31:38;;;;;;;4.30;3.00;;;;;;;3.66;100.00;97201.30;110377;1242;59688;-67
2023/12/07 08:34:08;;;;;;;3.50;2.70;;;;;;;3.71;100.00;97207.63;110342;1240;59763;-68
2023/12/07 08:36:38;;;;;;;3.60;2.50;;;;;;;3.73;100.00;97206.30;110550;1240;70669;-68
2023/12/07 08:39:09;;;;;;;3.10;2.30;;;;;;;3.78;100.00;97201.56;110403;1238;69851;-68
2023/12/07 08:41:38;;;;;;;4.30;2.80;;;;;;;3.84;100.00;97199.72;110267;1242;69293;-68
2023/12/07 08:44:08;;;;;;;3.10;2.70;;;;;;;3.93;100.00;97202.74;110267;1238;59726;-68
2023/12/07 08:46:37;;;;;;;5.80;3.50;;;;;;;3.99;100.00;97200.23;110472;1240;59991;-68
2023/12/07 08:49:08;;;;;;;6.50;3.20;;;;;;;4.00;100.00;97196.85;110753;1238;71983;-69
2023/12/07 08:51:37;;;;;;;4.20;2.90;;;;;;;4.04;100.00;97195.43;110395;1242;69124;-67
2023/12/07 08:54:17;;;;;;;3.30;2.50;;;;;;;4.06;100.00;97195.86;110957;1242;68313;-67
2023/12/07 08:56:46;;;;;;;2.70;2.30;;;;;;;4.07;100.00;97194.09;110397;1242;59686;-67
2023/12/07 08:59:15;;;;;;;2.50;2.00;;;;;;;4.09;100.00;97189.52;110550;1241;59675;-67
2023/12/07 09:01:44;;;;;;;2.40;2.10;;;;;;;4.10;100.00;97190.65;110667;1238;71370;-68
2023/12/07 09:04:13;;;;;;;3.20;2.40;;;;;;;4.10;100.00;97195.31;110494;1245;69213;-69
2023/12/07 09:06:42;;;;;;;2.90;2.40;;;;;;;4.07;100.00;97194.09;110621;1241;69831;-69
2023/12/07 09:09:12;;;;;;;9.50;8.50;;;;;;;4.04;100.00;97191.84;110562;1240;60114;-67
2023/12/07 09:11:41;;;;;;;10.30;8.90;;;;;;;4.00;100.00;97190.48;110599;1242;59739;-68
2023/12/07 09:14:11;;;;;;;20.60;18.30;;;;;;;3.98;100.00;97185.77;110609;1238;70671;-68
2023/12/07 09:16:44;;;;;;;2.90;2.30;;;;;;;3.97;100.00;97192.16;110474;1238;68559;-68
2023/12/07 09:19:14;;;;;;;2.90;2.40;;;;;;;3.95;100.00;97190.23;110637;1240;68266;-68
2023/12/07 09:21:43;;;;;;;2.60;2.00;;;;;;;3.97;100.00;97192.16;110533;1242;59673;-68
2023/12/07 09:24:12;;;;;;;3.10;2.50;;;;;;;4.00;100.00;97187.73;110450;1242;59690;-68
2023/12/07 09:26:44;;;;;;;3.20;2.10;;;;;;;4.05;100.00;97185.55;110563;1240;71441;-68
2023/12/07 09:29:13;;;;;;;3.10;1.80;;;;;;;4.10;100.00;97181.20;110497;1242;69266;-67
2023/12/07 09:31:42;;;;;;;3.00;2.30;;;;;;;4.13;100.00;97184.19;110424;1242;67666;-68
2023/12/07 09:34:17;;;;;;;2.20;1.80;;;;;;;4.17;100.00;97186.52;110586;1241;59679;-68
2023/12/07 09:36:47;;;;;;;2.60;1.80;;;;;;;4.24;100.00;97183.76;110572;1242;59823;-68
2023/12/07 09:39:16;;;;;;;2.20;2.00;;;;;;;4.34;100.00;97182.23;110384;1245;70025;-68
2023/12/07 09:41:47;;;;;;;2.60;2.10;;;;;;;4.43;100.00;97180.71;110188;1245;69435;-68
2023/12/07 09:44:16;;;;;;;3.50;2.20;;;;;;;4.56;100.00;97180.01;110354;1241;69638;-68
2023/12/07 09:46:45;;;;;;;3.60;2.30;;;;;;;4.68;100.00;97174.92;110486;1242;59697;-68
2023/12/07 09:49:14;;;;;;;2.90;2.10;;;;;;;4.78;100.00;97175.10;110471;1242;59646;-68
2023/12/07 09:51:45;;;;;;;4.20;2.60;;;;;;;4.86;100.00;97168.45;110422;1241;71840;-68
2023/12/07 09:54:17;;;;;;;2.90;2.30;;;;;;;4.91;100.00;97168.88;110234;1242;69900;-67
2023/12/07 09:56:46;;;;;;;2.10;1.80;;;;;;;4.90;100.00;97168.21;110371;1242;69257;-68
2023/12/07 09:59:15;;;;;;;2.10;1.90;;;;;;;4.88;100.00;97167.46;110371;1240;59727;-68
2023/12/07 10:01:44;;;;;;;3.70;2.70;;;;;;;4.83;100.00;97169.46;110457;1240;59710;-67
2023/12/07 10:04:17;;;;;;;2.80;2.20;;;;;;;4.84;100.00;97173.36;110479;1239;70603;-68
2023/12/07 10:06:50;;;;;;;3.80;2.10;;;;;;;4.82;100.00;97176.41;110563;1240;69216;-68
2023/12/07 10:09:20;;;;;;;3.60;2.50;;;;;;;4.76;100.00;97175.18;110511;1241;69375;-68
2023/12/07 10:12:03;;;;;;;3.10;2.20;;;;;;;4.74;100.00;97173.05;110367;1241;59721;-69
2023/12/07 10:14:33;;;;;;;3.70;2.50;;;;;;;4.74;100.00;97169.92;110453;1241;59745;-69
2023/12/07 10:17:05;;;;;;;3.20;2.40;;;;;;;4.71;100.00;97172.16;110361;1242;71250;-69
2023/12/07 10:19:35;;;;;;;5.10;3.10;;;;;;;4.71;100.00;97171.63;110435;1241;69633;-68
2023/12/07 10:22:14;;;;;;;3.50;2.40;;;;;;;4.70;100.00;97177.91;110512;1242;69827;-68
2023/12/07 10:24:44;;;;;;;5.30;3.30;;;;;;;4.69;100.00;97183.16;110510;1241;59660;-68
2023/12/07 10:27:13;;;;;;;3.10;2.20;;;;;;;4.63;100.00;97186.58;110251;1242;59620;-68
2023/12/07 10:29:45;;;;;;;3.70;2.40;;;;;;;4.55;100.00;97185.41;110365;1241;71192;-68
2023/12/07 10:32:15;;;;;;;3.10;2.20;;;;;;;4.47;100.00;97181.39;110499;1238;69710;-67
2023/12/07 10:34:45;;;;;;;5.20;2.20;;;;;;;4.42;100.00;97180.41;110387;1242;69275;-67
2023/12/07 10:37:15;;;;;;;4.20;2.10;;;;;;;4.38;100.00;97183.71;110411;1240;59731;-67
2023/12/07 10:39:44;;;;;;;2.60;2.10;;;;;;;4.36;100.00;97183.15;110245;1238;59674;-67
2023/12/07 10:42:16;;;;;;;3.40;2.20;;;;;;;4.34;100.00;97183.42;110284;1242;71277;-67
2023/12/07 10:44:50;;;;;;;4.70;3.20;;;;;;;4.30;100.00;97181.58;110413;1240;69234;-67
2023/12/07 10:47:22;;;;;;;3.60;2.50;;;;;;;4.22;100.00;97181.63;110472;1240;68728;-67
2023/12/07 10:49:54;;;;;;;4.20;2.60;;;;;;;4.18;100.00;97177.54;110467;1241;59737;-67
2023/12/07 10:52:25;;;;;;;3.70;2.40;;;;;;;4.16;100.00;97177.10;110404;1240;59669;-67
2023/12/07 10:55:02;;;;;;;3.40;2.30;;;;;;;4.17;100.00;97171.38;110540;1240;70447;-67
2023/12/07 10:57:37;;;;;;;4.20;2.90;;;;;;;4.20;100.00;97170.89;110498;1243;69870;-66
2023/12/07 11:00:09;;;;;;;3.80;2.90;;;;;;;4.22;100.00;97170.06;110528;1242;69292;-67
2023/12/07 11:02:41;;;;;;;3.60;2.80;;;;;;;4.23;100.00;97171.41;110428;1242;59696;-67
2023/12/07 11:05:12;;;;;;;4.20;2.70;;;;;;;4.21;100.00;97173.08;110472;1242;59663;-68
2023/12/07 11:07:55;;;;;;;4.70;2.70;;;;;;;4.20;100.00;97167.25;110484;1242;71251;-69
2023/12/07 11:10:35;;;;;;;4.80;3.00;;;;;;;4.21;100.00;97168.05;110574;1241;68550;-67
2023/12/07 11:13:29;;;;;;;4.20;3.10;;;;;;;4.21;100.00;97163.75;110363;1247;69299;-68
2023/12/07 11:16:01;;;;;;;4.50;2.80;;;;;;;4.23;100.00;97167.96;110277;1243;59743;-67
2023/12/07 11:18:31;;;;;;;4.10;2.80;;;;;;;4.25;100.00;97166.47;110429;1241;59780;-68
2023/12/07 11:21:01;;;;;;;4.90;3.50;;;;;;;4.30;100.00;97167.58;110449;1238;71917;-70
2023/12/07 11:23:31;;;;;;;4.90;3.20;;;;;;;4.33;100.00;97166.39;110478;1242;68225;-68
2023/12/07 11:26:01;;;;;;;4.30;2.70;;;;;;;4.39;100.00;97162.63;110430;1242;69261;-69
2023/12/07 11:28:38;;;;;;;3.60;2.70;;;;;;;4.44;100.00;97163.23;110526;1238;59748;-67
2023/12/07 11:31:09;;;;;;;4.40;3.00;;;;;;;4.48;100.00;97164.74;110448;1241;59747;-67
2023/12/07 11:33:39;;;;;;;4.00;2.70;;;;;;;4.49;100.00;97165.73;110624;1242;70628;-67
2023/12/07 11:36:12;;;;;;;4.80;2.70;;;;;;;4.50;100.00;97167.73;110600;1240;69870;-68
2023/12/07 11:39:12;;;;;;;3.30;2.40;;;;;;;4.50;100.00;97166.85;110218;1242;69270;-68